Latest Weather Observations for Kowanyama

IDQ60801

Issued at 11:52 pm EST Friday 28 February 2020 (issued every 10 minutes, with the page automatically refreshed every 10 minutes)

About weather observations | Map of weather stations | Latest weather observations for QLD | Other Formats
Station Details ID: 029038 Name: KOWANYAMA AIRPORT Lat: -15.48 Lon: 141.75 Height: 9.6 m
Data from the previous 72 hours. | See also: Recent months at Kowanyama
Date/Time
EST
Temp
°C
App
Temp
°C
Dew
Point
°C
Rel
Hum
%
Delta-T
°C
Wind Press
QNH
hPa
Press
MSL
hPa
Rain since
9am
mm
Dir  Spd
km/h
Gust
km/h
Spd
kts
Gust
kts
28/11:30pm 27.5 33.8 25.3 88 1.5 NW 2 7 1 4 1008.3 1008.2 0.0
28/11:00pm 27.8 34.3 25.0 85 2.0 CALM 0 0 0 0 1008.5 1008.4 0.0
28/10:30pm 27.8 34.3 25.0 85 2.0 CALM 0 6 0 3 1008.3 1008.2 0.0
28/10:00pm 28.1 33.2 24.7 82 2.4 W 6 7 3 4 1007.9 1007.8 0.0
28/09:30pm 28.4 33.5 24.6 80 2.6 W 6 9 3 5 1007.7 1007.6 0.0
28/09:00pm 28.6 33.1 24.6 79 2.8 W 9 11 5 6 1007.5 1007.4 0.0
28/08:30pm 29.1 34.2 24.7 77 3.1 W 6 9 3 5 1007.5 1007.4 0.0
28/08:00pm 29.2 33.8 24.1 74 3.5 WSW 7 11 4 6 1007.1 1007.0 0.0
28/07:30pm 29.6 33.9 24.2 73 3.8 W 9 11 5 6 1007.0 1006.9 0.0
28/07:00pm 30.1 33.1 23.3 67 4.7 W 13 19 7 10 1006.4 1006.3 0.0
28/06:30pm 31.1 34.6 23.5 64 5.3 W 11 17 6 9 1006.2 1006.1 0.0
28/06:00pm 31.2 34.0 23.6 64 5.3 WSW 15 20 8 11 1005.8 1005.7 0.0
28/05:30pm 31.4 33.7 23.5 63 5.5 WSW 17 24 9 13 1005.6 1005.5 0.0
28/05:00pm 32.3 34.5 23.3 59 6.2 WSW 17 26 9 14 1005.6 1005.5 0.0
28/04:30pm 31.9 34.4 23.2 60 6.0 WSW 15 24 8 13 1005.7 1005.6 0.0
28/04:00pm 32.3 34.5 23.3 59 6.2 W 17 22 9 12 1005.8 1005.7 0.0
28/03:30pm 32.9 34.8 23.5 57 6.5 WNW 19 28 10 15 1006.1 1006.0 0.0
28/03:00pm 32.6 35.9 23.8 59 6.1 W 13 22 7 12 1006.3 1006.2 0.0
28/02:30pm 32.2 34.8 24.0 62 5.7 W 17 24 9 13 1006.5 1006.4 0.0
28/02:00pm 32.1 34.1 23.6 60 5.9 WNW 19 24 10 13 1006.8 1006.7 0.0
28/01:30pm 32.1 34.7 23.9 62 5.7 W 17 24 9 13 1007.3 1007.2 0.0
28/01:00pm 33.3 35.5 23.9 58 6.6 WNW 19 24 10 13 1007.9 1007.8 0.0
28/12:30pm 32.7 35.4 24.7 62 5.6 WNW 19 24 10 13 1008.3 1008.2 0.0
28/12:00pm 33.3 36.2 24.5 60 6.2 W 17 24 9 13 1008.7 1008.6 0.0
28/11:30am 32.9 36.4 24.9 63 5.6 WNW 15 20 8 11 1009.1 1009.0 0.0
28/11:00am 33.0 37.1 25.8 66 5.1 WNW 15 22 8 12 1009.2 1009.1 0.0
28/10:30am 32.2 36.2 25.0 65 5.1 NW 13 19 7 10 1009.4 1009.3 0.0
28/10:00am 31.5 35.0 24.9 68 4.7 WNW 15 20 8 11 1009.7 1009.6 0.0
28/09:30am 31.0 35.9 25.8 74 3.7 NW 11 17 6 9 1009.6 1009.5 0.0
28/09:00am 30.1 35.7 25.8 78 3.1 NW 7 13 4 7 1009.6 1009.5 -
28/08:30am 29.0 35.3 26.0 84 2.1 N 4 7 2 4 1009.5 1009.4 -
28/08:00am 28.1 35.0 26.3 90 1.3 N 2 7 1 4 1009.4 1009.3 -
28/07:30am 26.8 33.8 25.8 94 0.7 CALM 0 0 0 0 1009.1 1009.0 -
28/07:00am 26.5 33.3 25.6 95 0.6 CALM 0 0 0 0 1008.6 1008.5 -
28/06:30am 26.4 33.3 25.7 96 0.5 CALM 0 4 0 2 1008.5 1008.4 -
28/06:00am 26.4 32.9 25.7 96 0.5 NNE 2 6 1 3 1008.4 1008.3 -
28/05:30am 26.7 32.9 25.8 95 0.6 NNE 4 7 2 4 1008.3 1008.2 -
28/05:00am 26.7 32.7 26.0 96 0.5 ENE 6 9 3 5 1008.1 1008.0 -
28/04:30am 26.8 34.0 26.1 96 0.5 CALM 0 0 0 0 1008.2 1008.1 -
28/04:00am 26.7 33.0 26.0 96 0.5 E 4 7 2 4 1008.1 1008.0 -
28/03:30am 26.7 33.8 26.0 96 0.5 CALM 0 0 0 0 1008.1 1008.0 -
28/03:00am 26.8 33.8 25.9 95 0.6 CALM 0 0 0 0 1008.1 1008.0 0.0
28/02:30am 27.0 33.4 26.1 95 0.6 ENE 4 6 2 3 1008.2 1008.1 -
28/02:00am 27.1 34.2 26.0 94 0.8 CALM 0 0 0 0 1008.6 1008.5 -
28/01:30am 27.1 34.2 26.0 94 0.8 CALM 0 0 0 0 1008.8 1008.7 -
28/01:00am 27.1 33.4 26.0 94 0.8 NNE 4 7 2 4 1009.1 1009.0 -
28/12:30am 27.2 33.9 25.4 90 1.3 CALM 0 0 0 0 1009.0 1008.9 -
28/12:00am 27.5 34.4 25.7 90 1.3 CALM 0 0 0 0 1009.3 1009.2 -
 
Date/Time
EST
Temp
°C
App
Temp
°C
Dew
Point
°C
Rel
Hum
%
Delta-T
°C
Wind Press
QNH
hPa
Press
MSL
hPa
Rain since
9am
mm
Dir  Spd
km/h
Gust
km/h
Spd
kts
Gust
kts
27/11:30pm 28.0 35.0 25.8 88 1.6 CALM 0 0 0 0 1009.6 1009.5 -
27/11:00pm 28.1 35.0 25.7 87 1.7 CALM 0 0 0 0 1009.7 1009.6 -
27/10:30pm 28.2 34.3 25.6 86 1.8 SSE 4 7 2 4 1009.8 1009.7 -
27/10:00pm 28.2 33.8 25.4 85 2.0 SSW 6 9 3 5 1009.7 1009.6 -
27/09:30pm 28.3 33.8 25.3 84 2.1 SSW 6 7 3 4 1009.3 1009.2 -
27/09:08pm 28.6 35.1 25.6 84 2.1 SW 2 6 1 3 1009.2 1009.1 -
27/09:00pm 28.6 34.3 25.6 84 2.1 SW 6 7 3 4 1009.1 1009.0 0.0
27/08:49pm 28.6 34.2 25.4 83 2.3 SW 6 7 3 4 1009.0 1008.9 -
27/08:30pm 28.7 35.5 25.5 83 2.3 CALM 0 0 0 0 1008.9 1008.8 -
27/08:00pm 28.7 34.3 24.9 80 2.7 W 4 7 2 4 1008.6 1008.5 -
27/07:30pm 28.9 34.0 24.7 78 2.9 WSW 6 7 3 4 1008.2 1008.1 -
27/07:00pm 29.3 34.1 24.4 75 3.4 W 7 11 4 6 1007.7 1007.6 -
27/06:30pm 29.9 34.3 24.5 73 3.8 WSW 9 13 5 7 1007.0 1006.9 -
27/06:00pm 30.4 33.5 24.1 69 4.4 W 15 19 8 10 1006.5 1006.4 -
27/05:30pm 31.5 34.1 23.9 64 5.3 W 17 24 9 13 1006.1 1006.0 -
27/05:00pm 32.7 35.7 24.7 62 5.6 W 17 24 9 13 1005.7 1005.6 -
27/04:30pm 31.7 36.9 25.1 68 4.7 W 7 13 4 7 1005.6 1005.5 -
27/04:00pm 29.1 31.4 22.8 69 4.3 ESE 15 22 8 12 1006.3 1006.2 -
27/03:42pm 28.1 28.8 21.6 68 4.3 SE 20 39 11 21 1007.1 1007.0 -
27/03:30pm 28.4 29.8 22.6 71 3.9 SSE 19 24 10 13 1007.2 1007.1 -
27/03:06pm 31.8 34.6 25.2 68 4.7 W 20 28 11 15 1006.7 1006.6 -
27/03:00pm 32.2 34.8 25.5 67 4.8 WNW 22 28 12 15 1006.6 1006.5 -
27/02:30pm 33.0 37.1 25.8 66 5.1 WNW 15 20 8 11 1006.9 1006.8 -
27/01:00pm 33.4 37.4 23.7 56 6.8 NW 9 15 5 8 1008.3 1008.2 0.0
27/12:30pm 33.5 37.6 23.2 54 7.1 WNW 7 11 4 6 1009.0 1008.9 0.0
27/12:00pm 33.3 37.8 23.9 58 6.6 NNW 7 13 4 7 1009.4 1009.3 0.0
27/11:30am 32.6 37.5 24.6 62 5.6 SW 7 9 4 5 1009.7 1009.6 0.0
27/11:00am 31.8 35.8 23.1 60 6.0 SW 7 13 4 7 1009.8 1009.7 0.0
27/10:30am 31.9 36.0 22.9 59 6.2 SE 6 13 3 7 1010.0 1009.9 0.0
27/10:00am 31.1 34.9 22.4 60 5.9 SE 6 11 3 6 1010.3 1010.2 0.0
27/09:30am 30.3 35.1 24.2 70 4.2 SSE 6 9 3 5 1010.3 1010.2 0.0
27/09:00am 29.6 34.8 25.1 77 3.2 ESE 7 11 4 6 1010.2 1010.1 0.0
27/08:30am 29.4 36.4 25.8 81 2.6 CALM 0 7 0 4 1010.2 1010.1 0.0
27/08:00am 27.9 34.7 25.5 87 1.7 CALM 0 0 0 0 1009.6 1009.5 0.0
27/07:30am 27.3 34.5 26.2 94 0.8 CALM 0 0 0 0 1009.3 1009.2 0.0
27/07:00am 26.6 33.5 25.7 95 0.6 CALM 0 0 0 0 1009.0 1008.9 0.0
27/06:30am 26.3 33.0 25.4 95 0.6 CALM 0 0 0 0 1008.6 1008.5 0.0
27/06:00am 26.5 33.3 25.5 94 0.7 CALM 0 0 0 0 1008.2 1008.1 0.0
27/05:30am 26.4 32.7 25.4 94 0.7 ESE 2 6 1 3 1007.8 1007.7 0.0
27/05:00am 26.7 33.5 25.5 93 0.8 CALM 0 0 0 0 1007.5 1007.4 0.0
27/04:30am 26.7 33.1 25.5 93 0.8 NE 2 6 1 3 1007.4 1007.3 0.0
27/04:00am 26.8 33.6 25.6 93 0.8 CALM 0 0 0 0 1007.2 1007.1 0.0
27/03:30am 26.9 33.7 25.5 92 1.0 CALM 0 0 0 0 1007.2 1007.1 0.0
27/03:00am 26.7 33.1 25.5 93 0.8 WSW 2 6 1 3 1007.5 1007.4 0.0
27/02:30am 26.5 33.1 25.3 93 0.8 CALM 0 0 0 0 1007.8 1007.7 0.0
27/02:00am 26.6 32.9 24.8 90 1.3 CALM 0 0 0 0 1008.0 1007.9 0.0
27/01:30am 26.7 32.0 24.9 90 1.3 ENE 6 7 3 4 1008.3 1008.2 0.0
27/01:00am 26.9 32.7 25.1 90 1.3 SE 4 6 2 3 1008.6 1008.5 0.0
27/12:30am 27.0 33.2 25.2 90 1.3 E 2 6 1 3 1008.9 1008.8 0.0
27/12:00am 27.0 32.6 25.4 91 1.1 ENE 6 7 3 4 1009.1 1009.0 0.0
 
Date/Time
EST
Temp
°C
App
Temp
°C
Dew
Point
°C
Rel
Hum
%
Delta-T
°C
Wind Press
QNH
hPa
Press
MSL
hPa
Rain since
9am
mm
Dir  Spd
km/h
Gust
km/h
Spd
kts
Gust
kts
26/11:30pm 27.1 32.7 25.5 91 1.1 ENE 6 7 3 4 1009.4 1009.3 0.0
26/11:00pm 27.1 32.6 25.3 90 1.3 ENE 6 9 3 5 1009.5 1009.4 0.0
26/10:30pm 27.4 32.8 25.4 89 1.4 E 7 9 4 5 1009.7 1009.6 0.0
26/10:00pm 27.4 32.8 25.2 88 1.5 E 6 7 3 4 1009.5 1009.4 0.0
26/09:30pm 28.0 33.6 25.4 86 1.8 SSE 6 7 3 4 1008.7 1008.6 0.0
26/09:00pm 27.8 32.9 25.0 85 2.0 W 7 9 4 5 1008.4 1008.3 0.0
26/08:30pm 28.1 33.6 25.3 85 2.0 WSW 6 7 3 4 1007.8 1007.7 0.0
26/08:00pm 28.4 34.5 25.0 82 2.4 SW 2 6 1 3 1007.7 1007.6 0.0
26/07:30pm 28.5 33.7 25.1 82 2.4 W 7 9 4 5 1007.2 1007.1 0.0
26/07:00pm 29.3 33.6 24.2 74 3.5 WNW 9 11 5 6 1006.8 1006.7 0.0
26/06:30pm 30.3 33.7 24.0 69 4.4 WNW 13 17 7 9 1006.6 1006.5 0.0
26/06:00pm 31.4 34.3 23.2 61 5.7 WNW 13 19 7 10 1006.4 1006.3 0.0
26/05:30pm 31.7 33.9 23.2 60 5.9 WNW 17 20 9 11 1006.3 1006.2 0.0
26/05:00pm 32.3 34.6 24.1 62 5.7 W 19 24 10 13 1006.1 1006.0 0.0
26/04:30pm 32.7 35.3 23.9 60 6.1 W 17 24 9 13 1005.8 1005.7 0.0
26/04:00pm 33.1 35.0 23.4 56 6.7 WNW 19 24 10 13 1005.8 1005.7 0.0
26/03:30pm 33.7 36.7 24.6 59 6.4 W 17 22 9 12 1006.1 1006.0 0.0
26/03:00pm 33.0 35.6 23.9 59 6.4 W 17 22 9 12 1006.4 1006.3 0.0
26/02:30pm 33.8 37.2 24.1 57 6.8 WNW 13 24 7 13 1006.8 1006.7 0.0
26/02:00pm 34.3 38.6 24.3 56 7.0 NNW 9 13 5 7 1007.2 1007.1 0.0
26/01:30pm 33.2 36.8 22.3 52 7.5 NNW 7 15 4 8 1007.7 1007.6 0.0
26/01:00pm 33.5 37.1 23.8 57 6.8 NNW 11 19 6 10 1008.3 1008.2 0.0
26/12:30pm 33.0 37.3 24.2 60 6.2 NNE 9 17 5 9 1009.0 1008.9 0.0
26/12:00pm 32.6 36.0 23.3 58 6.4 NE 11 17 6 9 1009.5 1009.4 0.0
26/11:30am 32.2 36.5 23.7 61 5.9 N 7 13 4 7 1009.8 1009.7 0.0
26/11:00am 32.0 36.3 24.3 63 5.4 NNE 9 15 5 8 1010.0 1009.9 0.0
26/10:30am 31.7 36.2 24.0 63 5.4 N 7 15 4 8 1010.1 1010.0 0.0
26/10:00am 30.2 34.1 23.6 67 4.6 NNE 9 13 5 7 1010.1 1010.0 0.0
26/09:30am 30.0 34.0 24.4 72 3.9 NNE 11 20 6 11 1010.1 1010.0 0.0
26/09:00am 29.4 33.9 25.2 78 3.0 NNE 11 15 6 8 1009.9 1009.8 0.4
26/08:30am 28.4 32.9 24.6 80 2.6 NNE 9 17 5 9 1009.9 1009.8 0.4
26/08:00am 27.6 32.6 24.8 85 2.0 NE 7 11 4 6 1009.6 1009.5 0.4
26/07:30am 26.2 31.2 24.8 92 1.0 NE 7 13 4 7 1009.2 1009.1 0.4
26/07:00am 25.3 30.2 24.4 95 0.6 E 6 9 3 5 1008.8 1008.7 0.4
26/06:30am 25.1 29.9 24.2 95 0.6 E 6 7 3 4 1008.4 1008.3 0.4
26/06:00am 25.2 30.8 24.2 94 0.7 NE 2 7 1 4 1008.2 1008.1 0.4
26/05:30am 25.3 30.4 24.1 93 0.8 NE 4 7 2 4 1008.2 1008.1 0.4
26/05:00am 25.5 30.1 24.1 92 1.0 ENE 7 9 4 5 1008.1 1008.0 0.4
26/04:30am 25.6 30.2 24.2 92 1.0 NE 7 11 4 6 1008.0 1007.9 0.4
26/04:00am 25.7 30.6 24.3 92 1.0 NE 6 9 3 5 1007.9 1007.8 0.4
26/03:30am 26.0 30.1 24.0 89 1.4 NE 9 13 5 7 1007.8 1007.7 0.4
26/03:00am 26.3 30.6 24.2 88 1.5 NE 9 13 5 7 1008.2 1008.1 0.4
26/02:30am 26.6 31.0 24.4 88 1.5 NE 9 15 5 8 1008.3 1008.2 0.4
26/02:00am 26.8 31.7 24.6 88 1.5 ENE 7 11 4 6 1008.6 1008.5 0.4
26/01:30am 26.6 31.9 25.0 91 1.1 ENE 6 9 3 5 1008.9 1008.8 0.4
26/01:00am 26.7 32.2 25.3 92 1.0 NE 6 9 3 5 1008.9 1008.8 0.4
26/12:30am 26.7 32.1 25.5 93 0.8 NE 7 9 4 5 1009.0 1008.9 0.4
26/12:00am 26.5 32.1 25.5 94 0.7 NE 6 11 3 6 1009.0 1008.9 0.4

Other formats

Comma delimited format used in spreadsheet applications
http://www.bom.gov.au/fwo/IDQ60801/IDQ60801.94268.axf

JavaScript Object Notation format (JSON) in row-major order
http://www.bom.gov.au/fwo/IDQ60801/IDQ60801.94268.json

Data quality

Most of these data are generated automatically and are frequently updated. Quality checks on data are not normally performed. It is possible for incorrect values to appear. Refer to information at About Latest Weather Observations and please check the disclaimer before using these data.